Time;durP1;ratioP1;P1;durP2;ratioP2;P2;SDS_P1;SDS_P2;PMS_P1;PMS_P2;Temp;Humidity;BMP_temperature;BMP_pressure;BME280_temperature;BME280_humidity;BME280_pressure;Samples;Min_cycle;Max_cycle;Signal;HPM_P1;HPM_P2
2022/03/28 00:01:51;;;;;;;7.28;5.72;;;8.20;99.90;;;;;;5086365;28;20661;-57
2022/03/28 00:04:16;;;;;;;7.05;6.03;;;8.20;99.90;;;;;;5087338;28;20693;-58
2022/03/28 00:06:42;;;;;;;7.05;6.35;;;8.10;99.90;;;;;;5069404;28;20753;-58
2022/03/28 00:09:08;;;;;;;8.33;7.13;;;8.10;99.90;;;;;;5069588;28;20444;-58
2022/03/28 00:11:34;;;;;;;8.80;7.77;;;8.10;99.90;;;;;;5087514;28;20706;-58
2022/03/28 00:14:00;;;;;;;8.93;7.85;;;8.10;99.90;;;;;;5070634;28;20782;-58
2022/03/28 00:16:26;;;;;;;8.52;7.63;;;8.20;99.90;;;;;;5070051;28;20390;-58
2022/03/28 00:18:51;;;;;;;9.48;7.60;;;8.20;99.90;;;;;;5071211;28;21064;-57
2022/03/28 00:21:17;;;;;;;11.20;7.65;;;8.30;99.90;;;;;;5071803;28;20410;-57
2022/03/28 00:23:43;;;;;;;7.68;6.93;;;8.20;99.90;;;;;;5070144;28;20404;-57
2022/03/28 00:26:09;;;;;;;6.63;5.68;;;8.30;99.90;;;;;;5069911;28;20382;-56
2022/03/28 00:28:34;;;;;;;6.47;5.30;;;8.20;99.90;;;;;;5086874;28;20439;-55
2022/03/28 00:31:00;;;;;;;7.00;5.20;;;8.10;99.90;;;;;;5069847;28;20386;-59
2022/03/28 00:33:25;;;;;;;7.60;5.75;;;8.10;99.90;;;;;;5069631;28;20451;-57
2022/03/28 00:35:51;;;;;;;7.13;5.32;;;8.00;99.90;;;;;;5070065;28;20382;-58
2022/03/28 00:38:17;;;;;;;6.43;5.23;;;8.00;99.90;;;;;;5072478;28;20728;-58
2022/03/28 00:40:42;;;;;;;6.83;5.80;;;7.90;99.90;;;;;;5090229;28;20428;-55
2022/03/28 00:43:09;;;;;;;7.95;5.95;;;7.90;99.90;;;;;;5074437;28;20798;-59
2022/03/28 00:45:37;;;;;;;9.73;6.32;;;7.70;99.90;;;;;;5092616;28;20751;-55
2022/03/28 00:48:04;;;;;;;6.80;5.97;;;7.70;99.90;;;;;;5074180;28;20370;-59
2022/03/28 00:50:30;;;;;;;8.32;5.80;;;7.80;99.90;;;;;;5091684;28;20377;-59
2022/03/28 00:52:56;;;;;;;6.90;5.73;;;7.80;99.90;;;;;;5073509;28;20382;-59
2022/03/28 00:55:22;;;;;;;6.22;5.50;;;7.80;99.90;;;;;;5090630;28;20543;-57
2022/03/28 00:57:48;;;;;;;6.75;6.05;;;7.80;99.90;;;;;;5074158;28;20446;-58
2022/03/28 01:00:14;;;;;;;6.80;6.10;;;7.80;99.90;;;;;;5091549;28;20491;-58
2022/03/28 01:02:40;;;;;;;7.00;5.97;;;7.70;99.90;;;;;;5071795;28;20375;-57
2022/03/28 01:05:07;;;;;;;6.70;5.70;;;7.60;99.90;;;;;;5072273;28;20521;-59
2022/03/28 01:07:32;;;;;;;6.20;5.50;;;7.60;99.90;;;;;;5073706;28;20374;-59
2022/03/28 01:10:01;;;;;;;8.25;5.90;;;7.70;99.90;;;;;;5073750;28;20412;-56
2022/03/28 01:12:30;;;;;;;7.20;6.47;;;7.70;99.90;;;;;;5073269;28;20480;-59
2022/03/28 01:14:56;;;;;;;7.13;6.43;;;7.80;99.90;;;;;;5090720;28;20793;-58
2022/03/28 01:20:06;;;;;;;8.35;7.45;;;7.90;99.90;;;;;;5090816;28;20463;-56
2022/03/28 01:22:32;;;;;;;10.23;8.38;;;7.90;99.90;;;;;;5091804;28;20485;-57
2022/03/28 01:25:00;;;;;;;10.23;9.03;;;7.90;99.90;;;;;;5092014;28;20493;-59
2022/03/28 01:27:26;;;;;;;12.48;10.90;;;7.80;99.90;;;;;;5073833;28;20432;-57
2022/03/28 01:29:52;;;;;;;12.57;10.73;;;7.80;99.90;;;;;;5076073;28;20426;-59
2022/03/28 01:32:17;;;;;;;13.50;11.00;;;7.60;99.90;;;;;;5077768;28;20378;-60
2022/03/28 01:34:43;;;;;;;15.18;12.02;;;7.50;99.90;;;;;;5077183;28;20382;-59
2022/03/28 01:37:09;;;;;;;15.83;12.73;;;7.40;99.90;;;;;;5074757;28;20386;-60
2022/03/28 01:39:34;;;;;;;16.67;13.23;;;7.40;99.90;;;;;;5073988;28;20441;-59
2022/03/28 01:42:00;;;;;;;16.97;12.73;;;7.40;99.90;;;;;;5074747;28;20410;-57
2022/03/28 01:44:26;;;;;;;18.88;13.65;;;7.40;99.90;;;;;;5076493;28;20424;-59
2022/03/28 01:46:52;;;;;;;17.65;13.05;;;7.40;99.90;;;;;;5077601;28;20386;-59
2022/03/28 01:49:19;;;;;;;16.30;13.33;;;7.40;99.90;;;;;;5077191;28;20496;-57
2022/03/28 01:51:46;;;;;;;16.10;12.77;;;7.30;99.90;;;;;;5095127;28;20401;-57
2022/03/28 01:54:13;;;;;;;18.95;14.25;;;7.30;99.90;;;;;;5097337;28;20470;-59
2022/03/28 01:56:39;;;;;;;19.08;14.43;;;7.40;99.90;;;;;;5095677;28;20523;-59
2022/03/28 01:59:06;;;;;;;19.67;14.90;;;7.40;99.90;;;;;;5096464;28;20382;-59
2022/03/28 02:01:33;;;;;;;18.67;15.23;;;7.50;99.90;;;;;;5077263;28;20716;-59
2022/03/28 02:03:59;;;;;;;23.13;17.13;;;7.50;99.90;;;;;;5076743;28;20427;-59
2022/03/28 02:06:25;;;;;;;20.00;17.10;;;7.50;99.90;;;;;;5076998;28;20433;-59
2022/03/28 02:08:51;;;;;;;21.02;17.85;;;7.50;99.90;;;;;;5075894;28;20390;-59
2022/03/28 02:11:17;;;;;;;20.55;17.55;;;7.50;99.90;;;;;;5074308;28;20395;-59
2022/03/28 02:13:42;;;;;;;19.42;17.27;;;7.60;99.90;;;;;;5074404;28;20623;-58
2022/03/28 02:16:10;;;;;;;20.57;18.23;;;7.60;99.90;;;;;;5074486;28;20817;-55
2022/03/28 02:18:38;;;;;;;20.17;18.05;;;7.60;99.90;;;;;;5075574;28;20658;-58
2022/03/28 02:21:04;;;;;;;16.92;15.20;;;7.60;99.90;;;;;;5076278;28;20402;-59
2022/03/28 02:23:29;;;;;;;16.00;14.30;;;7.50;99.90;;;;;;5077351;28;20454;-59
2022/03/28 02:25:55;;;;;;;15.37;13.77;;;7.40;99.90;;;;;;5095114;28;20390;-57
2022/03/28 02:28:21;;;;;;;14.30;12.80;;;7.30;99.90;;;;;;5078550;28;20429;-57
2022/03/28 02:30:46;;;;;;;13.67;12.27;;;7.40;99.90;;;;;;5096199;28;20849;-59
2022/03/28 02:33:12;;;;;;;13.77;11.57;;;7.40;99.90;;;;;;5078385;28;20381;-58
2022/03/28 02:35:37;;;;;;;12.37;10.97;;;7.20;99.90;;;;;;5079589;28;20382;-59
2022/03/28 02:38:03;;;;;;;14.17;11.60;;;7.20;99.90;;;;;;5096292;28;20389;-59
2022/03/28 02:40:30;;;;;;;13.65;12.20;;;7.20;99.90;;;;;;5078075;28;20582;-60
2022/03/28 02:42:58;;;;;;;13.30;11.93;;;7.20;99.90;;;;;;5094486;28;20726;-58
2022/03/28 02:45:28;;;;;;;13.18;11.65;;;7.20;99.90;;;;;;5076851;28;20414;-59
2022/03/28 02:47:54;;;;;;;13.30;11.20;;;7.20;99.90;;;;;;5076100;28;20560;-59
2022/03/28 02:50:19;;;;;;;13.20;11.00;;;7.10;99.90;;;;;;5074555;28;20605;-55
2022/03/28 02:52:45;;;;;;;11.57;10.37;;;7.10;99.90;;;;;;5071877;28;20386;-59
2022/03/28 02:55:11;;;;;;;12.50;10.60;;;7.10;99.90;;;;;;5072891;28;20455;-59
2022/03/28 02:57:37;;;;;;;12.23;10.77;;;7.10;99.90;;;;;;5074092;28;20773;-59
2022/03/28 03:00:13;;;;;;;12.37;9.93;;;7.20;99.90;;;;;;5091621;28;20472;-60
2022/03/28 03:02:39;;;;;;;11.80;9.93;;;7.10;99.90;;;;;;5073776;28;20407;-58
2022/03/28 03:05:06;;;;;;;11.00;9.50;;;7.10;99.90;;;;;;5073778;28;20693;-57
2022/03/28 03:07:32;;;;;;;9.50;8.48;;;7.10;99.90;;;;;;5075757;28;20639;-61
2022/03/28 03:09:57;;;;;;;9.60;7.90;;;7.20;99.90;;;;;;5074199;28;20827;-59
2022/03/28 03:12:23;;;;;;;10.20;8.57;;;7.10;99.90;;;;;;5075995;28;20398;-59
2022/03/28 03:14:48;;;;;;;10.27;8.90;;;7.10;99.90;;;;;;5075004;28;20401;-59
2022/03/28 03:17:14;;;;;;;9.98;8.80;;;7.00;99.90;;;;;;5076125;28;20398;-59
2022/03/28 03:19:40;;;;;;;9.87;8.87;;;7.00;99.90;;;;;;5092981;28;20762;-58
2022/03/28 03:22:07;;;;;;;11.27;8.70;;;7.00;99.90;;;;;;5075952;28;20773;-59
2022/03/28 03:24:34;;;;;;;11.02;9.77;;;7.00;99.90;;;;;;5076016;28;20390;-57
2022/03/28 03:27:00;;;;;;;11.48;9.45;;;7.00;99.90;;;;;;5093548;28;20409;-59
2022/03/28 03:29:26;;;;;;;13.23;10.27;;;7.00;99.90;;;;;;5076115;28;20397;-56
2022/03/28 03:31:52;;;;;;;12.57;11.23;;;7.10;99.90;;;;;;5076106;28;20373;-59
2022/03/28 03:34:18;;;;;;;14.48;12.23;;;7.00;99.90;;;;;;5075454;28;20382;-59
2022/03/28 03:36:44;;;;;;;14.35;11.85;;;7.10;99.90;;;;;;5092421;28;20483;-55
2022/03/28 03:39:10;;;;;;;14.85;12.40;;;7.00;99.90;;;;;;5075319;28;20405;-57
2022/03/28 03:41:35;;;;;;;14.77;12.80;;;7.00;99.90;;;;;;5093709;28;20405;-59
2022/03/28 03:44:01;;;;;;;15.38;12.55;;;7.00;99.90;;;;;;5075560;28;20402;-59
2022/03/28 03:46:27;;;;;;;14.48;11.52;;;6.90;99.90;;;;;;5076636;28;20473;-60
2022/03/28 03:48:52;;;;;;;14.23;10.98;;;6.90;99.90;;;;;;5095249;28;20386;-58
2022/03/28 03:51:18;;;;;;;12.73;10.47;;;6.90;99.90;;;;;;5074700;28;20394;-58
2022/03/28 03:53:43;;;;;;;14.27;10.67;;;6.90;99.90;;;;;;5073767;28;20819;-58
2022/03/28 03:56:09;;;;;;;13.23;10.73;;;6.90;99.90;;;;;;5074603;28;20528;-59
2022/03/28 03:58:35;;;;;;;11.52;9.35;;;6.90;99.90;;;;;;5075455;28;20673;-57
2022/03/28 04:01:00;;;;;;;10.95;8.32;;;6.90;99.90;;;;;;5073987;28;20468;-58
2022/03/28 04:03:26;;;;;;;11.37;9.00;;;6.90;99.90;;;;;;5073854;28;20648;-58
2022/03/28 04:05:51;;;;;;;10.83;8.53;;;6.90;99.90;;;;;;5091810;28;20505;-58
2022/03/28 04:08:17;;;;;;;10.18;8.70;;;7.00;99.90;;;;;;5073854;28;20667;-59
2022/03/28 04:10:43;;;;;;;10.60;8.30;;;7.00;99.90;;;;;;5073334;28;20382;-59
2022/03/28 04:13:10;;;;;;;10.17;8.73;;;7.00;99.90;;;;;;5090403;28;20425;-58
2022/03/28 04:15:35;;;;;;;9.68;8.07;;;6.90;99.90;;;;;;5072693;28;20520;-57
2022/03/28 04:18:04;;;;;;;10.57;8.50;;;6.90;99.90;;;;;;5071329;28;20484;-58
2022/03/28 04:20:32;;;;;;;9.88;7.60;;;7.00;99.90;;;;;;5070690;28;20712;-58
2022/03/28 04:22:58;;;;;;;10.13;7.80;;;7.00;99.90;;;;;;5087005;28;20410;-57
2022/03/28 04:25:24;;;;;;;8.88;7.35;;;6.90;99.90;;;;;;5070892;28;20402;-59
2022/03/28 04:27:49;;;;;;;9.15;7.70;;;7.00;99.90;;;;;;5069411;28;20370;-59
2022/03/28 04:30:15;;;;;;;9.57;7.63;;;6.90;99.90;;;;;;5071068;28;20899;-57
2022/03/28 04:32:41;;;;;;;10.83;8.03;;;6.90;99.90;;;;;;5070508;28;20848;-56
2022/03/28 04:35:07;;;;;;;8.65;7.68;;;6.90;99.90;;;;;;5070599;28;20469;-57
2022/03/28 04:37:34;;;;;;;9.98;8.30;;;7.00;99.90;;;;;;5088309;28;20400;-57
2022/03/28 04:40:00;;;;;;;12.40;8.82;;;7.10;99.90;;;;;;5069148;28;20406;-56
2022/03/28 04:42:26;;;;;;;10.45;8.63;;;7.00;99.90;;;;;;5068845;28;20672;-58
2022/03/28 04:44:52;;;;;;;9.57;7.93;;;7.00;99.90;;;;;;5069648;28;20425;-58
2022/03/28 04:47:17;;;;;;;11.50;8.30;;;7.00;99.90;;;;;;5069916;28;20378;-56
2022/03/28 04:49:43;;;;;;;10.02;8.00;;;6.90;99.90;;;;;;5086713;28;20790;-56
2022/03/28 04:52:09;;;;;;;9.90;7.80;;;7.00;99.90;;;;;;5067305;28;20666;-55
2022/03/28 04:54:36;;;;;;;9.20;8.17;;;6.90;99.90;;;;;;5068418;28;20519;-57
2022/03/28 04:57:04;;;;;;;9.65;7.53;;;6.90;99.90;;;;;;5067953;28;20840;-58
2022/03/28 04:59:29;;;;;;;6.43;5.80;;;6.90;99.90;;;;;;5068026;28;20398;-58
2022/03/28 05:01:55;;;;;;;6.15;5.55;;;6.90;99.90;;;;;;5069012;28;20437;-61
2022/03/28 05:04:20;;;;;;;5.57;5.03;;;6.80;99.90;;;;;;5084623;28;20830;-59
2022/03/28 05:06:46;;;;;;;5.37;4.63;;;6.80;99.90;;;;;;5066962;28;20421;-58
2022/03/28 05:09:11;;;;;;;6.95;4.68;;;6.80;99.90;;;;;;5067334;28;20436;-58
2022/03/28 05:11:37;;;;;;;5.27;4.70;;;6.80;99.90;;;;;;5086439;28;20382;-58
2022/03/28 05:14:02;;;;;;;5.47;4.33;;;6.90;99.90;;;;;;5067331;28;20623;-59
2022/03/28 05:16:28;;;;;;;6.20;4.60;;;6.90;99.90;;;;;;5067384;28;20394;-59
2022/03/28 05:18:53;;;;;;;4.80;4.30;;;6.90;99.90;;;;;;5071722;28;20524;-56
2022/03/28 05:21:19;;;;;;;6.73;4.33;;;6.90;99.90;;;;;;5071892;28;20398;-59
2022/03/28 05:23:46;;;;;;;4.88;4.00;;;6.90;99.90;;;;;;5073280;28;20406;-56
2022/03/28 05:26:11;;;;;;;5.80;4.60;;;6.90;99.90;;;;;;5092003;28;20503;-59
2022/03/28 05:28:37;;;;;;;5.60;4.60;;;6.90;99.90;;;;;;5090862;28;20389;-59
2022/03/28 05:31:03;;;;;;;5.43;4.67;;;6.90;99.90;;;;;;5091801;28;20419;-59
2022/03/28 05:33:30;;;;;;;7.78;5.57;;;6.90;99.90;;;;;;5074631;28;20394;-59
2022/03/28 05:35:57;;;;;;;6.20;5.50;;;6.80;99.90;;;;;;5075556;28;20382;-59
2022/03/28 05:38:22;;;;;;;7.60;5.00;;;6.80;99.90;;;;;;5072227;28;20800;-58
2022/03/28 05:40:49;;;;;;;6.13;5.35;;;6.80;99.90;;;;;;5071971;28;20402;-57
2022/03/28 05:43:14;;;;;;;6.15;5.40;;;6.80;99.90;;;;;;5070102;28;20585;-56
2022/03/28 05:45:40;;;;;;;7.38;5.57;;;6.80;99.90;;;;;;5069329;28;20398;-59
2022/03/28 05:48:06;;;;;;;6.43;4.93;;;6.90;99.90;;;;;;5070939;28;20436;-57
2022/03/28 05:50:31;;;;;;;4.95;4.45;;;6.90;99.90;;;;;;5087828;28;20439;-57
2022/03/28 05:52:57;;;;;;;4.13;3.47;;;6.90;99.90;;;;;;5069089;28;20390;-57
2022/03/28 05:55:22;;;;;;;5.23;3.23;;;6.80;99.90;;;;;;5068703;28;20420;-57
2022/03/28 05:57:48;;;;;;;3.38;2.80;;;6.80;99.90;;;;;;5069145;28;20378;-57
2022/03/28 06:00:14;;;;;;;2.40;2.17;;;6.70;99.90;;;;;;5089358;28;20398;-55
2022/03/28 06:02:41;;;;;;;3.83;3.10;;;6.70;99.90;;;;;;5072565;28;20439;-59
2022/03/28 06:05:07;;;;;;;2.53;2.33;;;6.70;99.90;;;;;;5071482;28;20433;-59
2022/03/28 06:07:33;;;;;;;2.88;2.58;;;6.80;99.90;;;;;;5070661;28;20474;-59
2022/03/28 06:09:59;;;;;;;2.83;2.23;;;6.80;99.90;;;;;;5073512;28;20394;-58
2022/03/28 06:12:24;;;;;;;2.13;1.97;;;6.80;99.90;;;;;;5090517;28;20490;-56
2022/03/28 06:14:49;;;;;;;2.35;2.15;;;6.80;99.90;;;;;;5070473;28;20375;-60
2022/03/28 06:17:25;;;;;;;2.77;2.00;;;6.90;99.90;;;;;;5089816;28;20476;-57
2022/03/28 06:19:52;;;;;;;3.22;2.35;;;6.90;99.90;;;;;;5072286;28;20388;-57
2022/03/28 06:22:18;;;;;;;4.35;2.20;;;6.80;99.90;;;;;;5072778;28;20428;-59
2022/03/28 06:24:45;;;;;;;6.00;2.42;;;6.80;99.90;;;;;;5090828;28;20495;-59
2022/03/28 06:27:12;;;;;;;4.93;1.85;;;6.80;99.90;;;;;;5069925;28;20389;-58
2022/03/28 06:29:38;;;;;;;2.30;2.08;;;6.90;99.90;;;;;;5087538;28;20374;-59
2022/03/28 06:32:04;;;;;;;2.97;1.70;;;6.80;99.90;;;;;;5071718;28;20595;-57
2022/03/28 06:34:30;;;;;;;1.95;1.70;;;6.80;99.90;;;;;;5071387;28;20519;-59
2022/03/28 06:36:57;;;;;;;1.73;1.55;;;6.80;99.90;;;;;;5090269;28;20436;-59
2022/03/28 06:39:23;;;;;;;2.70;1.50;;;6.80;99.90;;;;;;5072886;28;20464;-59
2022/03/28 06:41:49;;;;;;;1.70;1.60;;;6.80;99.90;;;;;;5072542;28;20398;-59
2022/03/28 06:44:15;;;;;;;2.50;1.45;;;6.80;99.90;;;;;;5089549;28;20423;-59
2022/03/28 06:46:43;;;;;;;1.70;1.40;;;6.90;99.90;;;;;;5070541;28;20532;-58
2022/03/28 06:49:09;;;;;;;1.65;1.48;;;6.90;99.90;;;;;;5066687;28;20378;-58
2022/03/28 06:51:35;;;;;;;2.20;2.00;;;6.90;99.90;;;;;;5086376;28;20778;-59
2022/03/28 06:54:04;;;;;;;2.22;2.03;;;6.90;99.90;;;;;;5067029;28;20896;-59
2022/03/28 06:56:30;;;;;;;2.08;1.88;;;6.80;99.90;;;;;;5065819;28;20390;-58
2022/03/28 06:58:56;;;;;;;2.40;2.00;;;6.70;99.90;;;;;;5065447;28;20416;-57
2022/03/28 07:01:21;;;;;;;2.63;2.00;;;6.70;99.90;;;;;;5066198;28;20458;-60
2022/03/28 07:03:47;;;;;;;2.55;1.98;;;6.80;99.90;;;;;;5068781;28;20374;-59
2022/03/28 07:06:13;;;;;;;2.08;1.88;;;6.80;99.90;;;;;;5088301;28;20491;-59
2022/03/28 07:08:38;;;;;;;2.53;2.03;;;6.90;99.90;;;;;;5072175;28;20966;-59
2022/03/28 07:11:04;;;;;;;2.73;1.60;;;7.00;99.90;;;;;;5087781;28;20393;-55
2022/03/28 07:13:30;;;;;;;2.10;1.90;;;7.00;99.90;;;;;;5069013;28;20409;-57
2022/03/28 07:15:55;;;;;;;2.00;1.80;;;6.90;99.90;;;;;;5066854;28;20420;-58
2022/03/28 07:18:22;;;;;;;1.77;1.67;;;6.90;99.90;;;;;;5066107;28;20417;-56
2022/03/28 07:20:48;;;;;;;2.20;2.00;;;6.80;99.90;;;;;;5066685;28;20410;-58
2022/03/28 07:23:14;;;;;;;2.47;2.22;;;6.80;99.90;;;;;;5065254;28;20625;-59
2022/03/28 07:25:40;;;;;;;2.58;2.33;;;6.80;99.90;;;;;;5084874;28;20390;-58
2022/03/28 07:28:13;;;;;;;2.00;1.70;;;6.80;99.90;;;;;;5085367;28;20382;-60
2022/03/28 07:30:42;;;;;;;1.90;1.70;;;6.80;99.90;;;;;;5070528;28;20439;-58
2022/03/28 07:33:08;;;;;;;2.10;1.90;;;6.80;99.90;;;;;;5089451;28;20642;-57
2022/03/28 07:35:37;;;;;;;2.63;2.10;;;6.90;99.90;;;;;;5072615;28;20973;-58
2022/03/28 07:38:07;;;;;;;2.65;2.20;;;6.90;99.90;;;;;;5071416;28;20505;-60
2022/03/28 07:40:33;;;;;;;2.67;2.08;;;6.90;99.90;;;;;;5068038;28;20708;-60
2022/03/28 07:42:59;;;;;;;3.50;2.97;;;6.90;99.90;;;;;;5068809;28;20389;-60
2022/03/28 07:45:26;;;;;;;4.28;3.00;;;6.90;99.90;;;;;;5069112;28;20406;-59
2022/03/28 07:47:52;;;;;;;5.07;3.40;;;6.90;99.90;;;;;;5068765;28;20409;-59
2022/03/28 07:50:17;;;;;;;3.35;3.05;;;6.90;99.90;;;;;;5088260;28;20401;-60
2022/03/28 07:52:43;;;;;;;3.83;3.42;;;6.90;99.90;;;;;;5071729;28;20455;-56
2022/03/28 07:55:15;;;;;;;3.83;3.43;;;7.00;99.90;;;;;;5072743;28;20398;-60
2022/03/28 07:57:43;;;;;;;4.18;2.95;;;7.00;99.90;;;;;;5073956;28;20828;-58
2022/03/28 08:00:11;;;;;;;4.03;3.00;;;7.10;99.90;;;;;;5056499;28;20469;-59
2022/03/28 08:02:38;;;;;;;3.63;3.00;;;7.10;99.90;;;;;;5061028;28;20824;-59
2022/03/28 08:05:05;;;;;;;4.03;2.95;;;7.20;99.90;;;;;;5044865;28;20387;-57
2022/03/28 08:07:31;;;;;;;4.07;2.25;;;7.10;99.90;;;;;;5061599;28;20386;-59
2022/03/28 08:09:57;;;;;;;2.00;1.90;;;7.10;99.90;;;;;;5044186;28;20478;-54
2022/03/28 08:12:23;;;;;;;2.00;1.80;;;7.20;99.90;;;;;;5062439;28;20478;-58
2022/03/28 08:14:49;;;;;;;1.90;1.70;;;7.10;99.90;;;;;;5047126;28;20456;-58
2022/03/28 08:17:17;;;;;;;2.60;2.00;;;7.10;99.90;;;;;;5048203;28;20380;-57
2022/03/28 08:19:42;;;;;;;2.22;1.98;;;7.10;99.90;;;;;;5064495;28;20380;-57
2022/03/28 08:22:08;;;;;;;2.50;2.30;;;7.10;99.90;;;;;;5047937;28;20512;-58
2022/03/28 08:24:34;;;;;;;2.28;2.08;;;7.10;99.90;;;;;;5046121;28;20408;-58
2022/03/28 08:27:00;;;;;;;3.10;2.67;;;7.20;99.90;;;;;;5062429;28;20795;-57
2022/03/28 08:29:25;;;;;;;3.47;3.17;;;7.20;99.90;;;;;;5044718;28;20669;-59
2022/03/28 08:31:51;;;;;;;4.30;3.90;;;7.30;99.90;;;;;;5043016;28;20610;-57
2022/03/28 08:34:19;;;;;;;4.33;3.90;;;7.20;99.90;;;;;;5044514;28;20430;-59
2022/03/28 08:36:45;;;;;;;4.00;3.70;;;7.20;99.90;;;;;;5046163;28;20402;-58
2022/03/28 08:39:11;;;;;;;4.25;3.83;;;7.20;99.90;;;;;;5061023;28;20528;-59
2022/03/28 08:41:37;;;;;;;4.75;4.25;;;7.10;99.90;;;;;;5040687;28;20419;-59
2022/03/28 08:44:03;;;;;;;5.30;4.80;;;7.10;99.90;;;;;;5041467;28;20864;-60
2022/03/28 08:46:30;;;;;;;6.43;5.83;;;7.10;99.90;;;;;;5056298;28;20602;-58
2022/03/28 08:48:59;;;;;;;5.43;4.93;;;7.20;99.90;;;;;;5040345;28;20567;-56
2022/03/28 08:51:27;;;;;;;4.75;4.35;;;7.30;99.90;;;;;;5062294;28;20813;-57
2022/03/28 08:53:54;;;;;;;4.60;4.20;;;7.30;99.90;;;;;;5045741;28;20729;-57
2022/03/28 08:56:20;;;;;;;4.60;4.00;;;7.30;99.90;;;;;;5045431;28;20784;-58
2022/03/28 08:58:45;;;;;;;4.95;4.45;;;7.30;99.90;;;;;;5049052;28;20417;-58
2022/03/28 09:01:12;;;;;;;4.50;4.10;;;7.30;99.90;;;;;;5065765;28;20644;-57
2022/03/28 09:03:44;;;;;;;4.00;3.60;;;7.30;99.90;;;;;;5068763;28;20440;-56
2022/03/28 09:06:32;;;;;;;4.63;4.20;;;7.40;99.90;;;;;;5067344;28;20793;-59
2022/03/28 09:09:18;;;;;;;4.00;3.70;;;7.40;99.90;;;;;;5065282;28;20405;-59
2022/03/28 09:11:51;;;;;;;4.20;3.80;;;7.50;99.90;;;;;;5067203;28;20949;-58
2022/03/28 09:14:27;;;;;;;4.32;3.92;;;7.50;99.90;;;;;;5085482;28;20385;-59
2022/03/28 09:17:13;;;;;;;4.38;3.97;;;7.40;99.90;;;;;;5069735;28;20381;-59
2022/03/28 09:19:53;;;;;;;4.70;4.03;;;7.50;99.90;;;;;;5068161;28;20508;-59
2022/03/28 09:22:34;;;;;;;4.85;4.18;;;7.50;99.90;;;;;;5066639;28;20447;-56
2022/03/28 09:25:03;;;;;;;5.13;3.95;;;7.50;99.90;;;;;;5084158;28;20382;-58
2022/03/28 09:27:31;;;;;;;4.95;4.28;;;7.60;99.90;;;;;;5068364;28;20378;-58
2022/03/28 09:29:58;;;;;;;6.78;4.70;;;7.60;99.90;;;;;;5068963;28;20393;-55
2022/03/28 09:32:30;;;;;;;5.55;4.50;;;7.60;99.90;;;;;;5066105;28;20986;-57
2022/03/28 09:35:07;;;;;;;5.83;5.00;;;7.60;99.90;;;;;;5066215;28;20510;-59
2022/03/28 09:37:52;;;;;;;6.45;5.55;;;7.60;99.90;;;;;;5065518;28;20475;-59
2022/03/28 09:40:22;;;;;;;6.07;5.40;;;7.60;99.90;;;;;;5086468;28;20409;-57
2022/03/28 09:42:48;;;;;;;6.55;5.90;;;7.70;99.90;;;;;;5090060;28;20382;-57
2022/03/28 09:45:22;;;;;;;6.33;5.53;;;7.60;99.90;;;;;;5071354;28;20499;-59
2022/03/28 09:48:11;;;;;;;5.68;5.05;;;7.60;99.90;;;;;;5069900;28;20385;-58
2022/03/28 09:50:46;;;;;;;6.88;6.13;;;7.70;99.90;;;;;;5069545;28;20386;-58
2022/03/28 09:53:32;;;;;;;7.65;6.47;;;7.80;99.90;;;;;;5072173;28;20385;-59
2022/03/28 09:56:11;;;;;;;6.82;6.10;;;7.80;99.90;;;;;;5076120;28;20865;-58
2022/03/28 09:59:04;;;;;;;7.13;6.13;;;7.90;99.90;;;;;;5072475;28;20389;-58
2022/03/28 10:01:39;;;;;;;8.63;7.72;;;7.90;99.90;;;;;;5091542;28;20417;-59
2022/03/28 10:04:08;;;;;;;8.80;7.28;;;8.00;99.90;;;;;;5073201;28;20379;-58
2022/03/28 10:06:37;;;;;;;8.45;6.93;;;8.10;99.90;;;;;;5073944;28;20386;-56
2022/03/28 10:09:06;;;;;;;7.65;6.85;;;8.10;99.90;;;;;;5092396;28;20391;-59
2022/03/28 10:11:32;;;;;;;8.10;7.17;;;8.10;99.90;;;;;;5092757;28;20845;-54
2022/03/28 10:14:00;;;;;;;9.65;7.80;;;8.20;99.90;;;;;;5073844;28;20382;-59
2022/03/28 10:16:27;;;;;;;8.43;7.53;;;8.20;99.90;;;;;;5074216;28;20555;-57
2022/03/28 10:18:54;;;;;;;8.38;7.30;;;8.20;99.90;;;;;;5072269;28;20492;-57
2022/03/28 10:21:26;;;;;;;8.70;7.53;;;8.20;99.90;;;;;;5073411;28;20414;-59
2022/03/28 10:23:54;;;;;;;7.20;6.50;;;8.20;99.90;;;;;;5076010;28;20382;-58
2022/03/28 10:26:38;;;;;;;7.93;7.13;;;8.40;99.90;;;;;;5092947;28;20379;-59
2022/03/28 10:29:09;;;;;;;8.18;6.40;;;8.60;99.90;;;;;;5041908;28;20428;-59
2022/03/28 10:31:58;;;;;;;6.57;5.88;;;8.60;99.90;;;;;;5057733;28;20386;-58
2022/03/28 10:34:39;;;;;;;6.22;5.63;;;8.50;99.90;;;;;;5075572;28;20386;-59
2022/03/28 10:37:33;;;;;;;8.10;6.80;;;8.60;99.90;;;;;;5091873;28;20381;-59
2022/03/28 10:40:30;;;;;;;9.13;7.72;;;8.70;99.90;;;;;;5091402;28;20370;-55
2022/03/28 10:43:02;;;;;;;7.85;6.60;;;8.70;99.90;;;;;;5073555;28;20448;-57
2022/03/28 10:45:32;;;;;;;6.40;5.80;;;8.80;99.90;;;;;;5070897;28;20409;-58
2022/03/28 10:48:00;;;;;;;6.95;5.78;;;8.90;99.90;;;;;;5085022;28;20401;-58
2022/03/28 10:50:48;;;;;;;7.07;5.85;;;9.00;99.90;;;;;;5067184;28;20398;-59
2022/03/28 10:53:37;;;;;;;7.05;5.68;;;9.20;99.90;;;;;;5068570;28;20382;-59
2022/03/28 10:56:06;;;;;;;7.93;5.30;;;9.30;99.90;;;;;;5085682;28;20475;-57
2022/03/28 10:58:43;;;;;;;7.38;5.20;;;9.30;99.90;;;;;;5070506;28;20378;-59
2022/03/28 11:01:19;;;;;;;7.75;5.35;;;9.20;99.90;;;;;;5068106;28;20410;-57
2022/03/28 11:04:02;;;;;;;6.73;5.30;;;9.20;99.90;;;;;;5084216;28;20384;-59
2022/03/28 11:06:52;;;;;;;6.70;5.03;;;9.40;99.90;;;;;;5066304;28;20473;-59
2022/03/28 11:09:49;;;;;;;7.30;5.45;;;9.50;99.90;;;;;;5067068;28;21010;-58
2022/03/28 11:12:32;;;;;;;6.28;4.90;;;9.60;99.90;;;;;;5049691;28;20388;-58
2022/03/28 11:14:59;;;;;;;6.20;4.50;;;9.70;99.90;;;;;;5048847;28;20383;-57
2022/03/28 11:17:30;;;;;;;8.30;4.50;;;9.80;99.90;;;;;;5064277;28;20686;-59
2022/03/28 11:20:00;;;;;;;5.20;4.00;;;9.70;99.90;;;;;;5048488;28;20388;-59
2022/03/28 11:22:54;;;;;;;4.30;3.90;;;9.70;99.90;;;;;;5049569;28;20387;-58
2022/03/28 11:25:30;;;;;;;7.18;4.63;;;9.90;99.90;;;;;;5048734;28;20667;-58
2022/03/28 11:28:16;;;;;;;6.95;5.38;;;10.10;99.90;;;;;;5065235;28;20397;-58
2022/03/28 11:30:45;;;;;;;6.33;5.73;;;10.20;99.90;;;;;;5063250;28;20387;-58
2022/03/28 11:33:17;;;;;;;7.22;5.47;;;10.50;99.90;;;;;;5062533;28;20889;-58
2022/03/28 11:36:10;;;;;;;9.80;6.05;;;10.70;99.90;;;;;;5092121;27;20837;-58
2022/03/28 11:38:39;;;;;;;6.57;5.90;;;10.70;99.90;;;;;;5094372;28;20404;-59
2022/03/28 11:41:06;;;;;;;7.53;6.28;;;10.70;99.90;;;;;;5061647;28;20381;-56
2022/03/28 11:43:38;;;;;;;9.38;6.68;;;10.80;99.90;;;;;;5095336;28;20385;-58
2022/03/28 11:46:11;;;;;;;6.75;5.57;;;10.70;99.90;;;;;;5060257;28;20384;-59
2022/03/28 11:48:37;;;;;;;6.40;4.40;;;10.90;99.90;;;;;;5059932;28;20446;-57
2022/03/28 11:51:16;;;;;;;6.32;4.32;;;10.90;99.90;;;;;;5094854;28;20681;-58
2022/03/28 11:53:42;;;;;;;5.38;3.92;;;10.90;99.90;;;;;;5061126;28;20412;-56
2022/03/28 11:56:08;;;;;;;5.13;3.90;;;10.90;99.90;;;;;;5094041;28;20384;-58
2022/03/28 11:58:33;;;;;;;5.80;3.80;;;11.20;99.90;;;;;;5062808;28;20385;-58
2022/03/28 12:01:10;;;;;;;6.70;3.80;;;11.40;99.90;;;;;;5093013;28;20389;-54
2022/03/28 12:03:57;;;;;;;5.45;3.58;;;11.40;99.90;;;;;;5093983;28;20385;-59
2022/03/28 12:06:38;;;;;;;7.82;4.00;;;11.60;99.90;;;;;;5065303;28;20385;-58
2022/03/28 12:09:07;;;;;;;5.47;3.40;;;11.50;99.90;;;;;;5065475;28;20384;-59
2022/03/28 12:11:36;;;;;;;4.70;3.80;;;11.40;99.90;;;;;;5098832;28;20393;-58
2022/03/28 12:14:03;;;;;;;5.63;4.03;;;11.30;99.90;;;;;;5100724;28;20507;-58
2022/03/28 12:16:30;;;;;;;5.75;3.88;;;11.20;99.90;;;;;;5100434;28;20431;-59
2022/03/28 12:18:59;;;;;;;5.25;3.80;;;11.00;99.90;;;;;;5067798;28;20534;-59
2022/03/28 12:21:27;;;;;;;9.18;4.32;;;11.30;99.90;;;;;;5066462;28;20419;-57
2022/03/28 12:23:54;;;;;;;6.57;3.92;;;11.30;99.90;;;;;;5099682;28;20384;-58
2022/03/28 12:26:21;;;;;;;6.15;4.07;;;11.50;99.90;;;;;;5066567;28;20453;-59
2022/03/28 12:28:48;;;;;;;6.13;4.18;;;11.40;99.90;;;;;;5098319;28;20396;-56
2022/03/28 12:31:13;;;;;;;5.50;3.58;;;11.30;99.90;;;;;;5097772;28;21017;-58
2022/03/28 12:33:44;;;;;;;6.10;3.92;;;11.30;99.90;;;;;;5096237;28;20400;-56
2022/03/28 12:36:14;;;;;;;8.83;4.50;;;11.50;99.90;;;;;;5064993;28;20377;-57
2022/03/28 12:38:42;;;;;;;6.68;4.78;;;11.90;99.90;;;;;;5099211;28;20871;-59
2022/03/28 12:41:14;;;;;;;7.90;4.78;;;11.70;99.90;;;;;;5065255;28;20464;-56
2022/03/28 12:43:52;;;;;;;7.72;4.60;;;11.60;99.90;;;;;;5098538;28;20396;-58
2022/03/28 12:46:19;;;;;;;5.38;4.53;;;11.60;99.90;;;;;;5091131;28;20388;-57
2022/03/28 12:48:51;;;;;;;6.93;4.28;;;11.30;99.90;;;;;;5086109;28;20779;-56
2022/03/28 12:51:26;;;;;;;10.38;4.72;;;11.20;99.90;;;;;;5036249;28;20394;-57
2022/03/28 12:54:23;;;;;;;7.63;5.10;;;11.10;99.90;;;;;;5065598;28;20458;-58
2022/03/28 12:56:56;;;;;;;7.85;5.00;;;11.10;99.90;;;;;;5033118;28;20395;-58
2022/03/28 12:59:29;;;;;;;6.70;4.65;;;11.00;99.90;;;;;;5034197;28;20395;-57
2022/03/28 13:02:14;;;;;;;8.10;4.63;;;11.00;99.90;;;;;;5031974;28;20422;-58
2022/03/28 13:04:49;;;;;;;8.07;4.70;;;10.90;99.90;;;;;;5032755;28;20406;-58